Time,TemperatureF,DewpointF,PressureIn,WindDirection,WindDirectionDegrees,WindSpeedMPH,WindSpeedGustMPH,Humidity,HourlyPrecipIn,Conditions,Clouds,dailyrainin,SolarRadiationWatts/m^2,SoftwareType,DateUTC
2014-09-02 00:32:00,53.0,43.0,-100.00,South,169,7.0,10.0,69,0.00,,,0.02,0.000000,,2014-09-02 06:32:00,
2014-09-02 00:42:00,53.0,43.0,-100.00,South,169,7.0,10.0,69,0.00,,,0.02,0.000000,,2014-09-02 06:42:00,
2014-09-02 00:51:00,51.0,41.0,-100.00,SSE,159,6.0,10.0,68,0.00,,,0.02,0.000000,,2014-09-02 06:51:00,
2014-09-02 01:22:00,51.0,41.0,-100.00,SSE,159,6.0,10.0,68,0.00,,,0.02,0.000000,,2014-09-02 07:22:00,
2014-09-02 01:32:00,51.0,41.0,-100.00,SSE,159,6.0,10.0,68,0.00,,,0.02,0.000000,,2014-09-02 07:32:00,
2014-09-02 01:51:00,50.0,41.0,-100.00,South,172,9.0,12.0,71,0.00,,,0.02,0.000000,,2014-09-02 07:51:00,
2014-09-02 02:23:00,50.0,41.0,-100.00,South,172,9.0,12.0,71,0.00,,,0.02,0.000000,,2014-09-02 08:23:00,
2014-09-02 02:32:00,50.0,41.0,-100.00,South,172,9.0,12.0,71,0.00,,,0.02,0.000000,,2014-09-02 08:32:00,
2014-09-02 02:42:00,50.0,41.0,-100.00,South,172,9.0,12.0,71,0.00,,,0.02,0.000000,,2014-09-02 08:42:00,
2014-09-02 03:22:00,50.0,42.0,-100.00,SSE,162,12.0,15.0,75,0.00,,,0.02,0.000000,,2014-09-02 09:22:00,
2014-09-02 03:43:00,50.0,42.0,-100.00,SSE,162,12.0,15.0,75,0.00,,,0.02,0.000000,,2014-09-02 09:43:00,
2014-09-02 03:51:00,51.0,42.0,-100.00,South,174,14.0,19.0,72,0.00,,,0.02,0.000000,,2014-09-02 09:51:00,
2014-09-02 04:24:00,51.0,42.0,-100.00,South,174,14.0,19.0,72,0.00,,,0.02,0.000000,,2014-09-02 10:24:00,
2014-09-02 04:51:00,52.0,44.0,-100.00,SSE,166,16.0,20.0,75,0.00,,,0.02,0.000000,,2014-09-02 10:51:00,
2014-09-02 05:23:00,52.0,44.0,-100.00,SSE,166,16.0,20.0,75,0.00,,,0.02,0.000000,,2014-09-02 11:23:00,
2014-09-02 05:42:00,52.0,44.0,-100.00,SSE,166,16.0,20.0,75,0.00,,,0.02,0.000000,,2014-09-02 11:42:00,
2014-09-02 05:51:00,51.0,45.0,-100.00,SSE,162,11.0,19.0,79,0.00,,,0.02,0.000000,,2014-09-02 11:51:00,
2014-09-02 06:33:00,51.0,45.0,-100.00,SSE,162,11.0,19.0,79,0.00,,,0.02,0.000000,,2014-09-02 12:33:00,
2014-09-02 06:43:00,51.0,45.0,-100.00,SSE,162,11.0,19.0,79,0.00,,,0.02,0.000000,,2014-09-02 12:43:00,
2014-09-02 06:51:00,52.0,45.0,-100.00,SSE,168,8.0,15.0,77,0.00,,,0.02,5.000000,,2014-09-02 12:51:00,
2014-09-02 07:32:00,52.0,45.0,-100.00,SSE,168,8.0,15.0,77,0.00,,,0.02,5.000000,,2014-09-02 13:32:00,
2014-09-02 07:51:00,55.0,44.0,-100.00,South,182,11.0,15.0,66,0.00,,,0.02,131.000000,,2014-09-02 13:51:00,
2014-09-02 08:23:00,55.0,44.0,-100.00,South,182,11.0,15.0,66,0.00,,,0.02,131.000000,,2014-09-02 14:23:00,
2014-09-02 08:32:00,55.0,44.0,-100.00,South,182,11.0,15.0,66,0.00,,,0.02,131.000000,,2014-09-02 14:32:00,
2014-09-02 09:34:00,61.0,45.0,-100.00,South,180,9.0,14.0,56,0.00,,,0.02,297.000000,,2014-09-02 15:34:00,
2014-09-02 10:33:00,64.0,43.0,-100.00,South,186,11.0,14.0,46,0.00,,,0.02,458.000000,,2014-09-02 16:33:00,
2014-09-02 11:34:00,71.0,44.0,-100.00,South,179,9.0,14.0,38,0.00,,,0.02,592.000000,,2014-09-02 17:34:00,